createdAt,value
2022-11-14T07:12:33.713Z,72.50
2022-11-14T07:15:03.786Z,74.80
2022-11-14T07:17:31.692Z,71.60
2022-11-14T07:20:13.566Z,70.10
2022-11-14T07:22:45.159Z,69.50
2022-11-14T07:25:13.745Z,68.80
2022-11-14T07:27:40.877Z,68.60
2022-11-14T07:30:19.880Z,68.50
2022-11-14T07:32:47.885Z,68.00
2022-11-14T07:35:16.545Z,68.10
2022-11-14T07:37:47.643Z,67.80
2022-11-14T07:40:17.670Z,67.70
2022-11-14T07:42:50.129Z,67.50
2022-11-14T07:45:24.740Z,67.10
2022-11-14T07:48:02.049Z,67.10
2022-11-14T07:50:33.592Z,66.50
2022-11-14T07:53:05.577Z,66.80
2022-11-14T07:55:39.546Z,66.20
2022-11-14T07:58:07.382Z,66.50
2022-11-14T08:00:34.805Z,65.70
2022-11-14T08:03:07.401Z,65.20
2022-11-14T08:05:37.346Z,65.40
2022-11-14T08:08:09.942Z,65.20
2022-11-14T08:10:39.704Z,65.30
2022-11-14T08:16:00.506Z,65.30
2022-11-14T08:18:30.823Z,64.50
2022-11-14T08:21:00.749Z,64.60
2022-11-14T08:23:35.998Z,64.50
2022-11-14T08:26:04.449Z,64.70
2022-11-14T08:28:31.654Z,64.70
2022-11-14T08:31:03.074Z,67.50
2022-11-14T08:33:34.377Z,67.30
2022-11-14T08:36:11.544Z,67.50
2022-11-14T08:38:41.781Z,67.60
2022-11-14T08:41:13.437Z,66.80
2022-11-14T08:43:42.891Z,67.20
2022-11-14T08:46:17.356Z,67.50
2022-11-14T08:48:46.817Z,67.10
2022-11-14T08:51:17.518Z,66.80
2022-11-14T08:53:49.926Z,66.80
2022-11-14T08:56:18.802Z,66.40
2022-11-14T08:58:48.697Z,66.10
2022-11-14T09:01:19.455Z,66.60
2022-11-14T09:03:48.723Z,66.80
2022-11-14T09:06:19.363Z,66.20
2022-11-14T09:08:47.776Z,65.80
2022-11-14T09:11:19.308Z,66.20
2022-11-14T09:13:46.730Z,65.70
2022-11-14T09:16:14.123Z,65.90
2022-11-14T09:18:45.333Z,65.90
2022-11-14T09:21:17.811Z,65.50
2022-11-14T09:23:48.718Z,65.60
2022-11-14T09:26:21.733Z,65.20
2022-11-14T09:28:52.675Z,66.00
2022-11-14T09:31:23.410Z,65.80
2022-11-14T09:33:52.837Z,65.30
2022-11-14T09:36:21.122Z,66.10
2022-11-14T09:38:49.372Z,65.70
2022-11-14T09:41:43.340Z,65.90
2022-11-14T09:44:29.585Z,65.40
2022-11-14T09:47:07.477Z,65.90
2022-11-14T09:49:44.168Z,65.80
2022-11-14T09:53:10.545Z,65.30
2022-11-14T09:55:40.707Z,65.60
2022-11-14T09:58:20.558Z,65.20
2022-11-14T10:01:09.605Z,63.80
2022-11-14T10:04:06.989Z,65.30
2022-11-14T10:06:42.839Z,65.50
2022-11-14T10:09:42.642Z,66.00
2022-11-14T10:12:41.911Z,64.80
2022-11-14T10:15:11.830Z,65.40
2022-11-14T10:17:56.478Z,65.50
2022-11-14T10:20:39.741Z,65.70
2022-11-14T10:23:21.405Z,63.00
2022-11-14T10:25:56.814Z,62.50
2022-11-14T10:29:03.115Z,63.60
2022-11-14T10:31:51.118Z,65.80
2022-11-14T10:34:33.452Z,65.90
2022-11-14T10:37:12.272Z,65.60
2022-11-14T10:39:55.781Z,65.60
2022-11-14T10:42:41.125Z,64.00
2022-11-14T10:45:31.247Z,65.20
2022-11-14T10:48:08.506Z,65.40
2022-11-14T10:50:55.113Z,65.50
2022-11-14T10:53:32.482Z,65.40
2022-11-14T10:56:04.799Z,65.80
2022-11-14T10:58:46.688Z,65.60
2022-11-14T11:01:33.617Z,64.40
2022-11-14T11:04:24.897Z,64.80
2022-11-14T11:07:04.319Z,64.80
2022-11-14T11:09:49.606Z,65.20
2022-11-14T11:12:28.539Z,64.60
2022-11-14T11:15:28.369Z,64.50
2022-11-14T11:18:07.924Z,64.90
2022-11-14T11:20:41.255Z,65.20
2022-11-14T11:23:30.286Z,65.10
2022-11-14T11:26:26.773Z,65.00
2022-11-14T11:29:08.490Z,65.00
2022-11-14T11:31:58.522Z,65.20
2022-11-14T11:34:37.197Z,65.00
2022-11-14T11:37:04.046Z,65.70
2022-11-14T11:39:41.782Z,65.70
2022-11-14T11:42:15.189Z,65.20
2022-11-14T11:44:53.385Z,66.10
2022-11-14T11:47:21.836Z,65.60
2022-11-14T11:49:57.337Z,65.60
2022-11-14T11:52:52.635Z,66.10
2022-11-14T11:55:29.818Z,66.50
2022-11-14T11:58:19.730Z,65.40
2022-11-14T12:00:55.568Z,64.40
2022-11-14T12:03:28.232Z,66.00
2022-11-14T12:06:01.218Z,66.20
2022-11-14T12:09:11.402Z,69.10
2022-11-14T12:25:28.863Z,63.80
2022-11-14T12:28:46.326Z,84.70
2022-11-14T12:31:17.385Z,82.30
2022-11-14T12:33:59.102Z,78.60
2022-11-14T12:36:33.402Z,75.60
2022-11-14T12:39:02.156Z,73.40
2022-11-14T12:41:35.719Z,75.80
2022-11-14T12:44:41.346Z,75.40
2022-11-14T12:47:13.321Z,73.20
2022-11-14T12:49:58.980Z,71.50
2022-11-14T12:52:43.844Z,70.60
2022-11-14T12:55:27.226Z,71.50
2022-11-14T12:58:18.005Z,71.40
2022-11-14T13:00:51.421Z,70.40
2022-11-14T13:03:29.494Z,69.80
2022-11-14T13:05:59.138Z,70.50
2022-11-14T13:08:51.309Z,59.50
2022-11-14T13:11:53.423Z,65.10
2022-11-14T13:14:47.385Z,71.20
2022-11-14T13:17:35.836Z,71.50
2022-11-14T13:20:52.121Z,72.30
2022-11-14T13:23:35.484Z,70.10
2022-11-14T13:26:16.640Z,70.80
2022-11-14T13:28:50.647Z,71.20
2022-11-14T13:31:26.403Z,71.00
2022-11-14T13:34:03.481Z,71.40
2022-11-14T13:37:01.018Z,71.20
2022-11-14T13:39:58.099Z,71.10
2022-11-14T13:43:00.374Z,69.40
2022-11-14T13:45:53.316Z,68.50
2022-11-14T13:48:47.218Z,69.90
2022-11-14T13:51:42.431Z,69.20
2022-11-14T13:54:22.448Z,68.30
2022-11-14T13:57:16.226Z,67.40
2022-11-14T13:59:57.360Z,68.40
2022-11-14T14:02:56.885Z,69.00
2022-11-14T14:05:41.849Z,69.20
2022-11-14T14:08:21.585Z,68.30
2022-11-14T14:11:06.486Z,67.90
2022-11-14T14:13:58.077Z,67.70
2022-11-14T14:16:39.913Z,68.20
2022-11-14T14:19:45.793Z,68.00
2022-11-14T14:22:38.798Z,69.10
2022-11-14T14:25:39.488Z,66.90
2022-11-14T14:28:50.505Z,66.40
2022-11-14T14:31:31.733Z,66.40
2022-11-14T14:34:05.756Z,66.60
2022-11-14T14:36:35.243Z,65.90
2022-11-14T14:39:21.942Z,66.50
2022-11-14T14:41:51.553Z,67.40
2022-11-14T14:44:34.969Z,67.20
2022-11-14T14:47:15.095Z,68.00
2022-11-14T14:49:53.018Z,67.30
2022-11-14T14:52:36.784Z,67.50
2022-11-14T14:55:18.151Z,66.90
2022-11-14T14:57:45.510Z,67.10
2022-11-14T15:00:29.754Z,67.20
2022-11-14T15:02:59.419Z,66.90
2022-11-14T15:05:31.143Z,66.10
2022-11-14T15:08:03.687Z,67.20
2022-11-14T15:10:44.383Z,67.20
2022-11-14T15:13:25.506Z,66.40
2022-11-14T15:15:56.251Z,66.80
2022-11-14T15:18:27.634Z,66.30
2022-11-14T15:21:32.344Z,66.30
2022-11-14T15:24:24.708Z,65.80
2022-11-14T15:26:55.932Z,66.40
2022-11-14T15:29:31.813Z,66.10
2022-11-14T15:32:05.962Z,65.30
2022-11-14T15:34:38.492Z,65.90
2022-11-14T15:37:29.695Z,65.70
2022-11-14T15:40:35.445Z,65.50
2022-11-14T15:43:45.468Z,66.20
2022-11-14T15:49:28.549Z,65.40
2022-11-14T15:52:02.963Z,64.60
2022-11-14T15:54:38.853Z,64.80
2022-11-14T15:57:21.469Z,63.40
2022-11-14T15:59:51.481Z,65.00
2022-11-14T16:02:46.021Z,64.40
2022-11-14T16:05:20.955Z,62.40
2022-11-14T16:07:50.803Z,63.60
2022-11-14T16:10:20.955Z,63.70
2022-11-14T16:12:52.470Z,64.00
2022-11-14T16:15:21.009Z,62.90
2022-11-14T16:17:49.548Z,63.00
2022-11-14T16:20:23.134Z,63.00
2022-11-14T16:22:50.643Z,63.60
2022-11-14T16:25:29.155Z,64.80
2022-11-14T16:27:56.193Z,64.90
2022-11-14T16:30:25.693Z,62.20
2022-11-14T16:32:53.028Z,64.20
2022-11-14T16:35:27.253Z,63.70
2022-11-14T16:37:57.340Z,62.30
2022-11-14T16:40:29.344Z,62.40
2022-11-14T16:42:58.310Z,63.50
2022-11-14T16:45:26.734Z,64.10
2022-11-14T16:47:54.059Z,61.00
2022-11-14T16:50:21.512Z,62.90
2022-11-14T16:52:54.266Z,60.80
2022-11-14T16:55:21.258Z,61.80
2022-11-14T16:57:49.067Z,63.00
2022-11-14T17:00:16.437Z,64.20
2022-11-14T17:02:53.588Z,65.00
2022-11-14T17:05:20.586Z,63.80
2022-11-14T17:07:47.437Z,65.30
2022-11-14T17:10:14.307Z,65.00
2022-11-14T17:12:41.291Z,66.20
2022-11-14T17:15:08.575Z,65.70
2022-11-14T17:17:35.664Z,66.60
2022-11-14T17:20:02.645Z,66.10
2022-11-14T17:22:29.533Z,62.90
2022-11-14T17:24:56.482Z,65.10
2022-11-14T17:27:24.529Z,64.20
2022-11-14T17:29:54.283Z,64.50
2022-11-14T17:32:21.362Z,64.50
2022-11-14T17:34:50.933Z,63.30
2022-11-14T17:37:18.013Z,64.30
2022-11-14T17:39:44.926Z,62.10
2022-11-14T17:42:12.015Z,65.00
2022-11-14T17:44:39.025Z,65.80
2022-11-14T17:47:06.042Z,65.10
2022-11-14T17:49:33.284Z,64.20
2022-11-14T17:52:02.878Z,65.50
2022-11-14T17:54:37.276Z,65.50
2022-11-14T17:57:05.455Z,64.00
2022-11-14T17:59:32.675Z,63.80
2022-11-14T18:02:02.912Z,64.00
2022-11-14T18:04:31.926Z,65.20
2022-11-14T18:06:58.855Z,65.40
2022-11-14T18:09:26.988Z,65.30
2022-11-14T18:11:57.020Z,62.20
2022-11-14T18:14:27.537Z,63.20
2022-11-14T18:19:43.805Z,63.90
2022-11-14T18:22:10.825Z,64.10
2022-11-14T18:24:37.676Z,64.90
2022-11-14T18:27:05.934Z,65.30
2022-11-14T18:29:32.861Z,68.70
2022-11-14T18:31:59.629Z,69.10
2022-11-14T18:34:26.915Z,64.00
2022-11-14T18:36:54.017Z,66.60
2022-11-14T18:39:20.824Z,67.30
2022-11-14T18:41:47.908Z,67.50
2022-11-14T18:44:18.005Z,68.00
2022-11-14T18:46:44.908Z,68.40
2022-11-14T18:49:14.056Z,69.30
2022-11-14T18:51:42.304Z,69.20
2022-11-14T18:54:17.712Z,69.50
2022-11-14T18:56:44.953Z,71.00
2022-11-14T18:59:11.944Z,69.00
2022-11-14T19:01:38.945Z,67.30
2022-11-14T19:04:08.210Z,66.90
2022-11-14T19:06:37.851Z,67.80
2022-11-14T19:09:11.434Z,67.10
2022-11-14T19:11:58.445Z,68.60
2022-11-14T19:14:25.423Z,67.50
2022-11-14T19:16:52.363Z,67.80
2022-11-14T19:19:22.571Z,66.90
2022-11-14T19:21:52.555Z,67.70
2022-11-14T19:24:19.415Z,67.30
2022-11-14T19:26:46.292Z,68.10
2022-11-14T19:29:14.128Z,66.90
2022-11-14T19:31:41.862Z,66.60
2022-11-14T19:34:10.005Z,67.30
2022-11-14T19:39:25.626Z,68.00
2022-11-14T19:41:52.636Z,67.80
2022-11-14T19:44:19.881Z,67.30
2022-11-14T19:46:47.967Z,67.70
2022-11-14T19:49:18.350Z,66.70
2022-11-14T19:51:49.282Z,66.70
2022-11-14T19:54:16.529Z,67.40
2022-11-14T19:56:43.574Z,67.10
2022-11-14T19:59:26.063Z,67.10
2022-11-14T20:01:55.603Z,66.90
2022-11-14T20:04:22.817Z,67.70
2022-11-14T20:06:49.771Z,67.50
2022-11-14T20:09:16.800Z,68.20
2022-11-14T20:11:43.685Z,67.70
2022-11-14T20:14:13.704Z,68.00
2022-11-14T20:16:40.615Z,67.70
2022-11-14T20:19:07.787Z,68.10
2022-11-14T20:21:37.872Z,68.10
2022-11-14T20:24:04.903Z,68.00
2022-11-14T20:26:32.009Z,67.50
2022-11-14T20:28:59.468Z,68.00
2022-11-14T20:31:30.154Z,67.40
2022-11-14T20:33:57.019Z,68.50
2022-11-14T20:36:29.368Z,67.70
2022-11-14T20:39:02.242Z,69.00
